createdAt,value
2018-04-27T00:02:17.634Z,5.73
2018-04-27T00:04:53.232Z,4.43
2018-04-27T00:07:26.823Z,5.70
2018-04-27T00:10:01.572Z,4.80
2018-04-27T00:12:36.993Z,5.47
2018-04-27T00:15:10.615Z,4.63
2018-04-27T00:17:44.487Z,4.80
2018-04-27T00:20:19.688Z,5.20
2018-04-27T00:22:53.718Z,5.00
2018-04-27T00:25:28.119Z,5.50
2018-04-27T00:28:02.702Z,4.83
2018-04-27T00:30:37.509Z,5.13
2018-04-27T00:33:13.754Z,4.90
2018-04-27T00:35:47.826Z,5.73
2018-04-27T00:38:21.789Z,5.17
2018-04-27T00:40:55.741Z,4.67
2018-04-27T00:43:29.786Z,6.00
2018-04-27T00:46:03.720Z,4.87
2018-04-27T00:48:38.055Z,5.60
2018-04-27T00:51:12.719Z,4.50
2018-04-27T00:53:46.569Z,5.13
2018-04-27T00:56:21.363Z,5.87
2018-04-27T00:58:54.927Z,6.83
2018-04-27T01:01:29.137Z,5.23
2018-04-27T01:04:02.879Z,5.20
2018-04-27T01:06:37.608Z,5.53
2018-04-27T01:09:12.259Z,6.27
2018-04-27T01:11:45.979Z,4.80
2018-04-27T01:14:19.716Z,5.47
2018-04-27T01:16:54.690Z,4.90
2018-04-27T01:19:28.823Z,5.23
2018-04-27T01:22:02.515Z,5.90
2018-04-27T01:24:36.769Z,5.70
2018-04-27T01:27:10.830Z,5.43
2018-04-27T01:29:44.987Z,4.87
2018-04-27T01:32:19.023Z,5.90
2018-04-27T01:34:53.706Z,5.10
2018-04-27T01:37:27.701Z,5.83
2018-04-27T01:40:02.168Z,4.80
2018-04-27T01:42:36.033Z,4.80
2018-04-27T01:45:09.795Z,4.70
2018-04-27T01:47:43.641Z,5.13
2018-04-27T01:50:17.697Z,4.70
2018-04-27T01:52:51.862Z,4.30
2018-04-27T01:55:26.887Z,4.80
2018-04-27T01:58:00.821Z,4.70
2018-04-27T02:00:35.286Z,4.90
2018-04-27T02:03:09.082Z,4.40
2018-04-27T02:05:43.326Z,4.80
2018-04-27T02:08:16.839Z,5.03
2018-04-27T02:10:51.114Z,4.87
2018-04-27T02:13:25.920Z,4.23
2018-04-27T02:15:59.607Z,4.03
2018-04-27T02:18:33.691Z,5.20
2018-04-27T02:21:07.506Z,4.43
2018-04-27T02:23:41.154Z,4.70
2018-04-27T02:26:14.671Z,5.40
2018-04-27T02:28:48.681Z,4.50
2018-04-27T02:31:22.470Z,4.90
2018-04-27T02:33:56.741Z,4.43
2018-04-27T02:36:30.697Z,4.60
2018-04-27T02:39:05.594Z,4.97
2018-04-27T02:41:39.760Z,5.00
2018-04-27T02:44:14.334Z,4.93
2018-04-27T02:46:49.765Z,5.13
2018-04-27T02:49:25.187Z,5.53
2018-04-27T02:51:58.767Z,4.27
2018-04-27T02:54:32.631Z,5.43
2018-04-27T02:57:07.892Z,4.77
2018-04-27T02:59:42.535Z,4.47
2018-04-27T03:02:17.787Z,4.30
2018-04-27T03:04:52.580Z,4.07
2018-04-27T03:07:26.940Z,4.37
2018-04-27T03:10:00.626Z,3.90
2018-04-27T03:12:34.555Z,4.57
2018-04-27T03:15:08.616Z,5.63
2018-04-27T03:17:42.639Z,3.87
2018-04-27T03:20:18.084Z,4.80
2018-04-27T03:22:52.498Z,4.33
2018-04-27T03:25:26.637Z,4.60
2018-04-27T03:28:00.204Z,4.90
2018-04-27T03:30:34.095Z,4.43
2018-04-27T03:33:08.263Z,5.33
2018-04-27T03:35:42.257Z,4.47
2018-04-27T03:38:16.663Z,4.43
2018-04-27T03:40:50.693Z,4.43
2018-04-27T03:43:24.650Z,4.20
2018-04-27T03:45:59.051Z,4.03
2018-04-27T03:48:32.830Z,4.20
2018-04-27T03:51:07.730Z,4.53
2018-04-27T03:53:41.626Z,4.07
2018-04-27T03:56:17.462Z,4.40
2018-04-27T03:58:51.491Z,4.57
2018-04-27T04:01:37.910Z,3.97
2018-04-27T04:04:24.574Z,4.63
2018-04-27T04:06:59.371Z,4.13
2018-04-27T04:09:33.571Z,4.23
2018-04-27T04:12:07.421Z,4.27
2018-04-27T04:14:41.831Z,4.73
2018-04-27T04:17:32.861Z,4.97
2018-04-27T04:20:07.382Z,4.90
2018-04-27T04:22:41.620Z,3.83
2018-04-27T04:25:15.485Z,4.57
2018-04-27T04:27:49.441Z,4.30
2018-04-27T04:30:24.012Z,4.50
2018-04-27T04:32:57.876Z,4.00
2018-04-27T04:35:32.102Z,3.43
2018-04-27T04:38:05.838Z,4.00
2018-04-27T04:40:40.061Z,5.23
2018-04-27T04:43:14.815Z,4.80
2018-04-27T04:45:48.514Z,4.07
2018-04-27T04:48:22.792Z,3.97
2018-04-27T04:50:57.338Z,4.13
2018-04-27T04:53:30.907Z,4.17
2018-04-27T04:56:06.209Z,3.67
2018-04-27T04:58:40.504Z,4.00
2018-04-27T05:01:14.674Z,3.67
2018-04-27T05:03:48.701Z,3.80
2018-04-27T05:06:24.111Z,3.60
2018-04-27T05:08:59.646Z,4.50
2018-04-27T05:11:33.602Z,3.63
2018-04-27T05:14:07.664Z,4.10
2018-04-27T05:16:41.684Z,4.03
2018-04-27T05:19:15.895Z,3.87
2018-04-27T05:21:50.671Z,3.73
2018-04-27T05:24:24.591Z,3.80
2018-04-27T05:26:58.598Z,4.00
2018-04-27T05:29:33.285Z,3.70
2018-04-27T05:32:07.555Z,4.00
2018-04-27T05:34:41.489Z,4.50
2018-04-27T05:37:15.678Z,4.00
2018-04-27T05:39:50.366Z,3.57
2018-04-27T05:42:25.355Z,3.63
2018-04-27T05:44:59.938Z,3.97
2018-04-27T05:47:33.912Z,4.07
2018-04-27T05:50:08.386Z,3.43
2018-04-27T05:52:42.343Z,3.57
2018-04-27T05:55:16.739Z,3.40
2018-04-27T05:57:50.426Z,3.63
2018-04-27T06:00:23.979Z,3.47
2018-04-27T06:02:57.926Z,3.73
2018-04-27T06:05:31.921Z,3.40
2018-04-27T06:08:06.567Z,3.83
2018-04-27T06:10:40.115Z,3.37
2018-04-27T06:13:14.479Z,3.97
2018-04-27T06:15:48.896Z,3.70
2018-04-27T06:18:22.714Z,3.33
2018-04-27T06:20:57.787Z,3.67
2018-04-27T06:23:31.812Z,8.20
2018-04-27T06:26:05.768Z,3.20
2018-04-27T06:28:51.335Z,2.90
2018-04-27T06:31:25.380Z,3.80
2018-04-27T06:33:59.552Z,2.70
2018-04-27T06:36:34.223Z,3.40
2018-04-27T06:39:08.258Z,3.67
2018-04-27T06:41:44.306Z,3.03
2018-04-27T06:44:19.235Z,3.33
2018-04-27T06:46:53.550Z,3.53
2018-04-27T06:49:28.081Z,3.37
2018-04-27T06:52:01.759Z,3.30
2018-04-27T06:54:35.759Z,3.30
2018-04-27T06:57:11.934Z,2.90
2018-04-27T06:59:46.640Z,3.07
2018-04-27T07:02:22.161Z,3.40
2018-04-27T07:04:55.960Z,3.13
2018-04-27T07:07:30.478Z,3.03
2018-04-27T07:10:05.598Z,3.47
2018-04-27T07:12:40.586Z,2.90
2018-04-27T07:15:16.526Z,3.33
2018-04-27T07:17:50.355Z,3.07
2018-04-27T07:20:23.903Z,2.67
2018-04-27T07:22:58.613Z,3.27
2018-04-27T07:25:33.820Z,2.90
2018-04-27T07:28:08.412Z,3.50
2018-04-27T07:30:42.963Z,3.70
2018-04-27T07:33:16.675Z,3.23
2018-04-27T07:35:51.250Z,3.13
2018-04-27T07:38:25.496Z,3.10
2018-04-27T07:41:00.289Z,2.73
2018-04-27T07:43:34.331Z,3.20
2018-04-27T07:46:09.547Z,3.60
2018-04-27T07:48:43.516Z,3.37
2018-04-27T07:51:17.109Z,2.87
2018-04-27T07:53:50.873Z,2.63
2018-04-27T07:56:26.433Z,2.50
2018-04-27T07:59:00.910Z,2.57
2018-04-27T08:01:34.868Z,2.70
2018-04-27T08:04:09.450Z,2.33
2018-04-27T08:06:44.310Z,2.37
2018-04-27T08:09:18.187Z,2.03
2018-04-27T08:11:52.826Z,2.47
2018-04-27T08:14:27.033Z,2.73
2018-04-27T08:17:02.231Z,2.17
2018-04-27T08:19:36.744Z,2.33
2018-04-27T08:22:11.103Z,2.60
2018-04-27T08:24:45.514Z,2.10
2018-04-27T08:27:19.755Z,2.50
2018-04-27T08:29:54.310Z,1.83
2018-04-27T08:32:29.499Z,2.07
2018-04-27T08:35:04.386Z,2.37
2018-04-27T08:37:39.904Z,2.20
2018-04-27T08:40:14.131Z,2.40
2018-04-27T08:42:48.418Z,1.97
2018-04-27T08:45:23.926Z,2.20
2018-04-27T08:47:57.651Z,2.10
2018-04-27T08:50:31.472Z,2.37
2018-04-27T08:53:06.007Z,2.00
2018-04-27T08:55:40.915Z,2.30
2018-04-27T08:58:15.813Z,2.33
2018-04-27T09:00:50.605Z,2.07
2018-04-27T09:03:24.682Z,2.00
2018-04-27T09:05:59.522Z,1.93
2018-04-27T09:08:33.629Z,2.00
2018-04-27T09:11:09.452Z,2.20
2018-04-27T09:13:43.527Z,2.10
2018-04-27T09:16:17.661Z,1.87
2018-04-27T09:18:51.543Z,2.10
2018-04-27T09:21:25.631Z,2.03
2018-04-27T09:23:59.215Z,2.20
2018-04-27T09:26:33.623Z,2.10
2018-04-27T09:29:08.094Z,2.43
2018-04-27T09:31:41.610Z,2.40
2018-04-27T09:34:16.049Z,2.20
2018-04-27T09:36:49.711Z,2.10
2018-04-27T09:39:25.018Z,2.40
2018-04-27T09:41:59.551Z,2.00
2018-04-27T09:44:35.349Z,2.07
2018-04-27T09:47:09.070Z,2.40
2018-04-27T09:49:43.502Z,2.10
2018-04-27T09:52:18.211Z,1.87
2018-04-27T09:54:51.955Z,2.07
2018-04-27T09:57:26.595Z,2.37
2018-04-27T10:00:01.050Z,2.13
2018-04-27T10:02:35.379Z,2.00
2018-04-27T10:05:09.799Z,2.30
2018-04-27T10:07:45.597Z,2.40
2018-04-27T10:10:19.567Z,2.27
2018-04-27T10:12:54.338Z,2.20
2018-04-27T10:15:27.894Z,2.10
2018-04-27T10:18:04.145Z,2.37
2018-04-27T10:20:37.926Z,2.40
2018-04-27T10:23:11.746Z,2.43
2018-04-27T10:25:47.155Z,2.53
2018-04-27T10:28:21.644Z,2.53
2018-04-27T10:30:56.063Z,2.30
2018-04-27T10:33:31.219Z,2.43
2018-04-27T10:36:04.823Z,2.50
2018-04-27T10:38:39.456Z,2.20
2018-04-27T10:41:15.607Z,2.40
2018-04-27T10:43:49.527Z,2.03
2018-04-27T10:46:24.526Z,2.30
2018-04-27T10:48:58.626Z,2.10
2018-04-27T10:51:33.594Z,1.83
2018-04-27T10:54:08.838Z,2.10
2018-04-27T10:56:43.003Z,2.43
2018-04-27T10:59:18.318Z,2.10
2018-04-27T11:01:52.447Z,2.00
2018-04-27T11:04:26.649Z,1.80
2018-04-27T11:07:01.652Z,2.50
2018-04-27T11:09:35.675Z,2.20
2018-04-27T11:12:09.567Z,2.00
2018-04-27T11:14:43.420Z,2.40
2018-04-27T11:17:19.347Z,2.20
2018-04-27T11:19:54.887Z,2.33
2018-04-27T11:22:28.689Z,2.13
2018-04-27T11:25:03.770Z,1.83
2018-04-27T11:27:37.802Z,2.67
2018-04-27T11:30:13.182Z,2.00
2018-04-27T11:32:48.848Z,2.10
2018-04-27T11:35:23.891Z,1.93
2018-04-27T11:37:59.987Z,2.07
2018-04-27T11:40:33.822Z,2.07
2018-04-27T11:43:08.749Z,1.70
2018-04-27T11:45:43.607Z,1.83
2018-04-27T11:48:17.710Z,2.00
2018-04-27T11:50:51.874Z,1.87
2018-04-27T11:53:26.445Z,1.83
2018-04-27T11:55:59.933Z,1.83
2018-04-27T11:58:33.505Z,2.30
2018-04-27T12:01:08.015Z,1.80
2018-04-27T12:03:41.977Z,2.07
2018-04-27T12:06:16.646Z,2.13
2018-04-27T12:08:50.511Z,2.00
2018-04-27T12:11:25.304Z,2.17
2018-04-27T12:14:00.084Z,1.73
2018-04-27T12:16:34.262Z,2.10
2018-04-27T12:19:09.538Z,2.30
2018-04-27T12:21:43.638Z,1.90
2018-04-27T12:24:17.536Z,2.00
2018-04-27T12:26:51.891Z,2.13
2018-04-27T12:29:25.574Z,2.30
2018-04-27T12:31:59.602Z,2.00
2018-04-27T12:34:34.259Z,2.10
2018-04-27T12:37:07.938Z,2.00
2018-04-27T12:39:42.658Z,2.07
2018-04-27T12:42:17.999Z,2.10
2018-04-27T12:44:52.698Z,2.30
2018-04-27T12:47:26.761Z,1.90
2018-04-27T12:50:01.447Z,2.33
2018-04-27T12:52:35.266Z,1.93
2018-04-27T12:55:09.988Z,1.90
2018-04-27T12:57:44.221Z,2.43
2018-04-27T13:00:18.099Z,1.87
2018-04-27T13:02:51.701Z,1.87
2018-04-27T13:05:25.816Z,1.90
2018-04-27T13:08:00.132Z,2.23
2018-04-27T13:10:34.253Z,1.90
2018-04-27T13:13:08.200Z,2.33
2018-04-27T13:15:44.059Z,2.00
2018-04-27T13:18:17.935Z,2.10
2018-04-27T13:20:52.486Z,2.07
2018-04-27T13:23:26.753Z,2.00
2018-04-27T13:26:00.411Z,2.27
2018-04-27T13:28:34.249Z,2.37
2018-04-27T13:31:08.382Z,2.20
2018-04-27T13:33:42.578Z,2.20
2018-04-27T13:36:16.644Z,2.17
2018-04-27T13:38:51.330Z,2.07
2018-04-27T13:41:25.548Z,2.10
2018-04-27T13:43:59.623Z,2.20
2018-04-27T13:46:33.724Z,1.90
2018-04-27T13:49:08.182Z,2.03
2018-04-27T13:51:42.770Z,1.97
2018-04-27T13:54:16.471Z,2.10
2018-04-27T13:56:51.848Z,2.07
2018-04-27T13:59:25.826Z,2.10
2018-04-27T14:01:59.302Z,1.97
2018-04-27T14:04:34.034Z,2.20
2018-04-27T14:07:08.722Z,1.80
2018-04-27T14:09:42.795Z,2.10
2018-04-27T14:12:17.888Z,1.83
2018-04-27T14:14:52.159Z,2.23
2018-04-27T14:17:25.845Z,2.10
2018-04-27T14:19:59.916Z,2.53
2018-04-27T14:22:33.842Z,2.00
2018-04-27T14:25:09.240Z,2.50
2018-04-27T14:27:43.719Z,2.30
2018-04-27T14:30:17.885Z,2.30
2018-04-27T14:32:53.187Z,2.60
2018-04-27T14:35:27.040Z,2.40
2018-04-27T14:38:02.558Z,1.90
2018-04-27T14:40:37.563Z,1.93
2018-04-27T14:43:12.265Z,1.97
2018-04-27T14:45:47.150Z,1.80
2018-04-27T14:48:21.004Z,1.83
2018-04-27T14:50:55.912Z,2.00
2018-04-27T14:53:30.378Z,2.33
2018-04-27T14:56:04.686Z,2.40
2018-04-27T14:58:39.140Z,2.07
2018-04-27T15:01:14.545Z,2.23
2018-04-27T15:03:49.873Z,2.10
2018-04-27T15:06:24.790Z,2.20
2018-04-27T15:08:59.982Z,2.40
2018-04-27T15:11:33.762Z,2.23
2018-04-27T15:14:02.463Z,1.83
2018-04-27T15:16:31.399Z,2.00
2018-04-27T15:19:00.962Z,2.13
2018-04-27T15:21:29.485Z,2.07
2018-04-27T15:23:57.994Z,2.20
2018-04-27T15:26:26.515Z,2.30
2018-04-27T15:28:54.731Z,2.10
2018-04-27T15:31:24.506Z,2.30
2018-04-27T15:33:53.592Z,2.33
2018-04-27T15:36:22.536Z,1.97
2018-04-27T15:38:51.585Z,2.17
2018-04-27T15:41:20.633Z,2.40
2018-04-27T15:43:48.934Z,2.20
2018-04-27T15:46:17.551Z,2.47
2018-04-27T15:48:46.208Z,2.27
2018-04-27T15:51:16.575Z,2.37
2018-04-27T15:53:45.036Z,2.50
2018-04-27T15:56:14.575Z,2.13
2018-04-27T15:58:43.445Z,2.33
2018-04-27T16:01:12.179Z,2.10
2018-04-27T16:03:42.272Z,2.47
2018-04-27T16:06:13.394Z,2.33
2018-04-27T16:08:41.934Z,2.60
2018-04-27T16:11:10.422Z,2.40
2018-04-27T16:16:34.250Z,1.97
2018-04-27T16:19:02.663Z,2.23
2018-04-27T16:21:31.182Z,2.40
2018-04-27T16:24:00.353Z,1.93
2018-04-27T16:26:31.994Z,2.23
2018-04-27T16:29:00.639Z,2.20
2018-04-27T16:31:29.071Z,1.97
2018-04-27T16:33:57.889Z,1.87
2018-04-27T16:36:27.042Z,2.50
2018-04-27T16:38:55.686Z,2.27
2018-04-27T16:41:25.146Z,2.37
2018-04-27T16:43:53.784Z,2.00
2018-04-27T16:46:22.810Z,2.30
2018-04-27T16:48:51.353Z,2.10
2018-04-27T16:51:19.502Z,2.10
2018-04-27T16:53:48.386Z,2.27
2018-04-27T16:56:18.284Z,2.30
2018-04-27T16:58:47.751Z,2.30
2018-04-27T17:01:16.783Z,2.03
2018-04-27T17:03:46.209Z,3.30
2018-04-27T17:06:15.099Z,2.13
2018-04-27T17:08:43.523Z,2.30
2018-04-27T17:11:12.038Z,2.80
2018-04-27T17:13:40.682Z,2.50
2018-04-27T17:16:08.823Z,2.40
2018-04-27T17:18:38.113Z,4.30
2018-04-27T17:21:07.079Z,2.63
2018-04-27T17:23:35.723Z,4.17
2018-04-27T17:26:04.771Z,2.40
2018-04-27T17:28:33.404Z,1.90
2018-04-27T17:31:01.822Z,2.17
2018-04-27T17:33:30.869Z,2.20
2018-04-27T17:35:59.463Z,2.47
2018-04-27T17:38:28.094Z,2.20
2018-04-27T17:40:56.308Z,2.53
2018-04-27T17:43:24.516Z,2.00
2018-04-27T17:45:52.723Z,2.90
2018-04-27T17:48:21.298Z,2.30
2018-04-27T17:50:49.435Z,3.10
2018-04-27T17:53:18.031Z,2.80
2018-04-27T17:55:46.695Z,3.00
2018-04-27T17:58:15.698Z,2.37
2018-04-27T18:00:44.338Z,2.67
2018-04-27T18:03:13.246Z,2.27
2018-04-27T18:05:41.425Z,2.50
2018-04-27T18:08:11.258Z,2.30
2018-04-27T18:10:40.634Z,2.37
2018-04-27T18:13:10.309Z,3.00
2018-04-27T18:15:39.246Z,2.40
2018-04-27T18:18:08.366Z,2.30
2018-04-27T18:20:37.498Z,3.10
2018-04-27T18:23:06.187Z,2.23
2018-04-27T18:25:35.624Z,2.50
2018-04-27T18:28:03.747Z,3.20
2018-04-27T18:30:33.122Z,3.17
2018-04-27T18:33:01.286Z,2.43
2018-04-27T18:35:29.927Z,2.60
2018-04-27T18:37:58.451Z,2.67
2018-04-27T18:40:27.016Z,2.83
2018-04-27T18:42:55.437Z,3.00
2018-04-27T18:45:24.294Z,2.40
2018-04-27T18:47:53.499Z,2.27
2018-04-27T18:50:22.777Z,3.00
2018-04-27T18:52:51.721Z,2.93
2018-04-27T18:55:20.426Z,3.00
2018-04-27T18:57:48.993Z,2.70
2018-04-27T19:00:18.458Z,2.40
2018-04-27T19:02:47.155Z,3.00
2018-04-27T19:05:16.330Z,2.77
2018-04-27T19:07:45.497Z,3.10
2018-04-27T19:10:14.023Z,3.00
2018-04-27T19:12:42.826Z,2.90
2018-04-27T19:15:11.479Z,2.83
2018-04-27T19:17:40.328Z,3.03
2018-04-27T19:20:08.474Z,2.87
2018-04-27T19:22:37.801Z,3.00
2018-04-27T19:25:06.326Z,3.13
2018-04-27T19:27:34.851Z,2.97
2018-04-27T19:30:03.378Z,3.47
2018-04-27T19:32:32.202Z,3.40
2018-04-27T19:35:01.354Z,3.50
2018-04-27T19:37:29.908Z,3.87
2018-04-27T19:39:58.419Z,3.30
2018-04-27T19:42:27.247Z,3.43
2018-04-27T19:44:56.586Z,3.90
2018-04-27T19:47:25.839Z,4.00
2018-04-27T19:49:54.506Z,3.10
2018-04-27T19:52:23.033Z,3.50
2018-04-27T19:54:51.689Z,3.77
2018-04-27T19:57:20.190Z,3.20
2018-04-27T19:59:49.135Z,3.23
2018-04-27T20:02:17.690Z,3.33
2018-04-27T20:04:46.787Z,3.50
2018-04-27T20:07:16.381Z,3.73
2018-04-27T20:09:45.095Z,3.63
2018-04-27T20:12:14.123Z,3.70
2018-04-27T20:14:43.210Z,3.30
2018-04-27T20:17:12.568Z,3.30
2018-04-27T20:19:41.932Z,3.57
2018-04-27T20:22:14.888Z,3.13
2018-04-27T20:24:44.588Z,3.60
2018-04-27T20:27:13.257Z,3.13
2018-04-27T20:29:43.347Z,3.13
2018-04-27T20:32:12.355Z,3.30
2018-04-27T20:34:41.219Z,3.37
2018-04-27T20:37:09.839Z,3.20
2018-04-27T20:39:38.389Z,3.20
2018-04-27T20:42:08.497Z,3.53
2018-04-27T20:44:36.970Z,3.40
2018-04-27T20:47:06.159Z,3.27
2018-04-27T20:49:38.326Z,3.77
2018-04-27T20:52:06.826Z,2.83
2018-04-27T20:54:36.318Z,3.17
2018-04-27T20:57:05.582Z,3.60
2018-04-27T20:59:35.043Z,3.77
2018-04-27T21:02:03.954Z,3.30
2018-04-27T21:04:32.591Z,3.33
2018-04-27T21:07:01.050Z,3.60
2018-04-27T21:09:30.222Z,3.30
2018-04-27T21:12:00.189Z,3.90
2018-04-27T21:14:29.411Z,3.80
2018-04-27T21:16:57.646Z,3.30
2018-04-27T21:19:26.649Z,3.47
2018-04-27T21:21:59.487Z,3.83
2018-04-27T21:24:27.935Z,3.17
2018-04-27T21:26:56.745Z,3.40
2018-04-27T21:29:27.582Z,3.50
2018-04-27T21:31:56.735Z,3.43
2018-04-27T21:34:26.111Z,3.43
2018-04-27T21:36:54.707Z,3.87
2018-04-27T21:39:25.736Z,3.50
2018-04-27T21:41:57.088Z,4.53
2018-04-27T21:47:30.897Z,3.80
2018-04-27T21:50:01.199Z,3.23
2018-04-27T21:52:36.190Z,3.90
2018-04-27T21:55:07.794Z,4.03
2018-04-27T21:57:41.019Z,3.97
2018-04-27T22:00:29.076Z,3.60
2018-04-27T22:03:01.363Z,3.63
2018-04-27T22:05:34.170Z,4.07
2018-04-27T22:08:12.723Z,4.10
2018-04-27T22:10:42.670Z,4.13
2018-04-27T22:13:11.132Z,4.03
2018-04-27T22:15:39.909Z,3.03
2018-04-27T22:18:09.006Z,3.63
2018-04-27T22:20:40.486Z,3.37
2018-04-27T22:23:09.309Z,3.30
2018-04-27T22:25:42.955Z,3.23
2018-04-27T22:28:11.154Z,3.47
2018-04-27T22:30:40.316Z,3.13
2018-04-27T22:36:28.965Z,3.40
2018-04-27T22:42:07.900Z,3.50
2018-04-27T22:44:53.543Z,3.27
2018-04-27T22:47:31.051Z,3.70
2018-04-27T22:49:59.866Z,3.20
2018-04-27T22:52:44.372Z,3.83
2018-04-27T22:55:15.964Z,3.43
2018-04-27T22:57:58.277Z,3.47
2018-04-27T23:00:27.450Z,3.73
2018-04-27T23:02:57.419Z,3.80
2018-04-27T23:05:28.345Z,3.73
2018-04-27T23:08:05.963Z,3.40
2018-04-27T23:10:44.094Z,3.40
2018-04-27T23:13:29.003Z,3.30
2018-04-27T23:15:59.153Z,3.50
2018-04-27T23:18:33.970Z,3.40
2018-04-27T23:21:02.594Z,3.37
2018-04-27T23:23:31.122Z,3.47
2018-04-27T23:25:59.547Z,3.57
2018-04-27T23:28:28.177Z,3.47
2018-04-27T23:30:57.039Z,3.37
2018-04-27T23:33:25.578Z,3.40
2018-04-27T23:35:55.862Z,3.33
2018-04-27T23:38:24.703Z,3.53
2018-04-27T23:40:55.959Z,3.60
2018-04-27T23:43:24.444Z,3.50
2018-04-27T23:45:53.313Z,3.20
2018-04-27T23:48:23.507Z,3.50
2018-04-27T23:51:01.119Z,3.60
2018-04-27T23:53:29.722Z,3.27
2018-04-27T23:55:59.019Z,3.63
2018-04-27T23:58:30.469Z,3.33
